createdAt,value
2022-12-03T00:02:14.014Z,3.80
2022-12-03T00:04:40.669Z,3.80
2022-12-03T00:07:07.452Z,3.72
2022-12-03T00:09:34.038Z,3.70
2022-12-03T00:12:00.606Z,3.60
2022-12-03T00:14:27.247Z,3.60
2022-12-03T00:16:53.878Z,3.60
2022-12-03T00:19:20.478Z,3.60
2022-12-03T00:21:47.087Z,3.50
2022-12-03T00:24:13.701Z,3.58
2022-12-03T00:26:40.405Z,3.60
2022-12-03T00:29:07.198Z,3.60
2022-12-03T00:31:33.885Z,3.60
2022-12-03T00:34:00.622Z,3.58
2022-12-03T00:36:27.295Z,3.50
2022-12-03T00:38:53.892Z,3.52
2022-12-03T00:41:20.502Z,3.50
2022-12-03T00:43:47.131Z,3.50
2022-12-03T00:46:18.188Z,3.50
2022-12-03T00:48:47.700Z,3.50
2022-12-03T00:51:14.246Z,3.50
2022-12-03T00:53:40.808Z,3.40
2022-12-03T00:56:08.172Z,3.40
2022-12-03T00:58:35.213Z,3.50
2022-12-03T01:01:01.962Z,3.50
2022-12-03T01:03:29.214Z,3.50
2022-12-03T01:05:55.893Z,3.50
2022-12-03T01:08:22.441Z,3.50
2022-12-03T01:10:49.054Z,3.50
2022-12-03T01:13:15.565Z,3.50
2022-12-03T01:15:42.270Z,3.40
2022-12-03T01:18:08.926Z,3.40
2022-12-03T01:20:36.503Z,3.40
2022-12-03T01:23:03.218Z,3.36
2022-12-03T01:25:29.977Z,3.30
2022-12-03T01:27:56.643Z,3.30
2022-12-03T01:30:23.267Z,3.30
2022-12-03T01:32:49.921Z,3.22
2022-12-03T01:35:16.867Z,3.20
2022-12-03T01:37:43.544Z,3.20
2022-12-03T01:40:15.722Z,3.20
2022-12-03T01:42:42.602Z,3.20
2022-12-03T01:45:22.743Z,3.20
2022-12-03T01:47:49.769Z,3.14
2022-12-03T01:50:27.819Z,3.00
2022-12-03T01:52:56.511Z,3.00
2022-12-03T01:55:25.344Z,3.00
2022-12-03T01:58:00.015Z,3.00
2022-12-03T02:00:28.772Z,2.90
2022-12-03T02:03:00.111Z,2.90
2022-12-03T02:05:30.250Z,2.96
2022-12-03T02:07:57.762Z,2.92
2022-12-03T02:10:36.236Z,2.90
2022-12-03T02:13:10.839Z,2.90
2022-12-03T02:15:40.192Z,2.92
2022-12-03T02:18:09.121Z,2.92
2022-12-03T02:21:16.998Z,3.00
2022-12-03T02:24:14.480Z,2.90
2022-12-03T02:26:41.243Z,2.90
2022-12-03T02:29:07.986Z,2.90
2022-12-03T02:31:34.695Z,2.80
2022-12-03T02:34:07.279Z,2.80
2022-12-03T02:36:36.007Z,2.70
2022-12-03T02:39:04.251Z,2.70
2022-12-03T02:41:49.587Z,2.70
2022-12-03T02:44:16.250Z,2.70
2022-12-03T02:46:43.033Z,2.70
2022-12-03T02:49:09.828Z,2.60
2022-12-03T02:51:37.444Z,2.60
2022-12-03T02:54:04.368Z,2.60
2022-12-03T02:56:32.648Z,2.60
2022-12-03T02:59:03.846Z,2.60
2022-12-03T03:01:30.992Z,2.50
2022-12-03T03:03:58.820Z,2.50
2022-12-03T03:06:25.506Z,2.50
2022-12-03T03:08:52.511Z,2.50
2022-12-03T03:11:19.232Z,2.50
2022-12-03T03:13:46.061Z,2.50
2022-12-03T03:16:12.740Z,2.60
2022-12-03T03:18:39.697Z,2.60
2022-12-03T03:21:06.689Z,2.70
2022-12-03T03:23:33.724Z,2.70
2022-12-03T03:26:07.864Z,2.70
2022-12-03T03:28:42.714Z,2.60
2022-12-03T03:31:12.914Z,2.64
2022-12-03T03:33:41.992Z,2.60
2022-12-03T03:36:09.497Z,2.60
2022-12-03T03:38:37.255Z,2.60
2022-12-03T03:41:07.894Z,2.62
2022-12-03T03:43:37.582Z,2.60
2022-12-03T03:46:06.604Z,2.66
2022-12-03T03:48:34.816Z,2.70
2022-12-03T03:51:04.212Z,2.70
2022-12-03T03:53:31.052Z,2.70
2022-12-03T03:55:57.832Z,2.70
2022-12-03T03:58:24.429Z,2.70
2022-12-03T04:00:51.920Z,2.70
2022-12-03T04:03:18.490Z,2.70
2022-12-03T04:05:45.126Z,2.70
2022-12-03T04:08:11.716Z,2.70
2022-12-03T04:10:57.505Z,2.70
2022-12-03T04:13:24.235Z,2.70
2022-12-03T04:15:50.948Z,2.70
2022-12-03T04:18:36.350Z,2.70
2022-12-03T04:21:21.853Z,2.70
2022-12-03T04:23:48.510Z,2.60
2022-12-03T04:26:34.160Z,2.58
2022-12-03T04:29:00.951Z,2.56
2022-12-03T04:31:47.827Z,2.50
2022-12-03T04:34:33.686Z,2.50
2022-12-03T04:37:00.352Z,2.50
2022-12-03T04:39:27.017Z,2.50
2022-12-03T04:41:53.701Z,2.50
2022-12-03T04:44:38.592Z,2.40
2022-12-03T04:47:17.642Z,2.40
2022-12-03T04:49:50.921Z,2.40
2022-12-03T04:52:20.440Z,2.30
2022-12-03T04:54:47.497Z,2.30
2022-12-03T04:57:14.095Z,2.30
2022-12-03T04:59:41.300Z,2.30
2022-12-03T05:02:08.220Z,2.30
2022-12-03T05:04:34.974Z,2.30
2022-12-03T05:07:01.982Z,2.30
2022-12-03T05:09:28.640Z,2.28
2022-12-03T05:11:55.281Z,2.20
2022-12-03T05:14:21.848Z,2.16
2022-12-03T05:16:48.628Z,2.10
2022-12-03T05:19:15.493Z,2.10
2022-12-03T05:21:42.033Z,2.00
2022-12-03T05:24:08.746Z,2.00
2022-12-03T05:26:35.378Z,2.00
2022-12-03T05:29:02.018Z,2.10
2022-12-03T05:31:28.650Z,2.02
2022-12-03T05:33:55.318Z,2.10
2022-12-03T05:36:21.998Z,2.10
2022-12-03T05:38:48.725Z,2.10
2022-12-03T05:41:34.458Z,2.08
2022-12-03T05:44:01.207Z,2.10
2022-12-03T05:46:27.911Z,2.10
2022-12-03T05:48:55.229Z,2.20
2022-12-03T05:51:21.809Z,2.20
2022-12-03T05:53:48.435Z,2.30
2022-12-03T05:56:15.062Z,2.30
2022-12-03T05:58:41.703Z,2.20
2022-12-03T06:01:08.381Z,2.24
2022-12-03T06:03:35.096Z,2.30
2022-12-03T06:06:02.018Z,2.30
2022-12-03T06:08:28.610Z,2.22
2022-12-03T06:10:55.240Z,2.30
2022-12-03T06:13:21.871Z,2.30
2022-12-03T06:15:48.555Z,2.20
2022-12-03T06:18:15.253Z,2.20
2022-12-03T06:20:41.895Z,2.20
2022-12-03T06:23:08.549Z,2.30
2022-12-03T06:25:35.142Z,2.30
2022-12-03T06:28:01.803Z,2.20
2022-12-03T06:30:28.566Z,2.22
2022-12-03T06:32:57.765Z,2.30
2022-12-03T06:35:24.385Z,2.30
2022-12-03T06:37:50.997Z,2.30
2022-12-03T06:40:17.573Z,2.30
2022-12-03T06:42:44.409Z,2.30
2022-12-03T06:45:12.055Z,2.30
2022-12-03T06:47:38.801Z,2.40
2022-12-03T06:50:08.107Z,2.40
2022-12-03T06:52:35.726Z,2.40
2022-12-03T06:55:02.426Z,2.40
2022-12-03T06:57:29.231Z,2.40
2022-12-03T06:59:56.231Z,2.40
2022-12-03T07:02:23.135Z,2.50
2022-12-03T07:04:49.871Z,2.50
2022-12-03T07:07:16.528Z,2.50
2022-12-03T07:09:43.167Z,2.50
2022-12-03T07:12:10.288Z,2.50
2022-12-03T07:14:37.661Z,2.40
2022-12-03T07:17:04.248Z,2.40
2022-12-03T07:19:32.867Z,2.40
2022-12-03T07:22:00.538Z,2.40
2022-12-03T07:24:27.788Z,2.40
2022-12-03T07:26:54.492Z,2.40
2022-12-03T07:29:21.160Z,2.48
2022-12-03T07:31:48.026Z,2.46
2022-12-03T07:34:14.733Z,2.50
2022-12-03T07:36:41.449Z,2.60
2022-12-03T07:39:08.055Z,2.60
2022-12-03T07:41:34.915Z,2.50
2022-12-03T07:44:01.476Z,2.50
2022-12-03T07:46:28.247Z,2.60
2022-12-03T07:48:54.933Z,2.60
2022-12-03T07:51:23.434Z,2.60
2022-12-03T07:53:53.164Z,2.60
2022-12-03T07:56:19.802Z,2.50
2022-12-03T07:58:46.429Z,2.50
2022-12-03T08:01:13.287Z,2.50
2022-12-03T08:03:39.957Z,2.50
2022-12-03T08:06:06.774Z,2.50
2022-12-03T08:08:33.370Z,2.58
2022-12-03T08:11:02.193Z,2.60
2022-12-03T08:13:28.819Z,2.60
2022-12-03T08:15:57.507Z,2.60
2022-12-03T08:18:24.121Z,2.60
2022-12-03T08:20:52.439Z,2.60
2022-12-03T08:23:23.179Z,2.60
2022-12-03T08:25:52.595Z,2.60
2022-12-03T08:28:24.139Z,2.60
2022-12-03T08:31:18.248Z,2.60
2022-12-03T08:33:47.799Z,2.60
2022-12-03T08:36:26.538Z,2.60
2022-12-03T08:39:07.125Z,2.60
2022-12-03T08:41:53.951Z,2.58
2022-12-03T08:44:30.559Z,2.60
2022-12-03T08:47:07.311Z,2.60
2022-12-03T08:49:34.044Z,2.60
2022-12-03T08:52:11.593Z,2.60
2022-12-03T08:54:38.315Z,2.62
2022-12-03T08:57:37.316Z,2.70
2022-12-03T09:00:20.152Z,2.70
2022-12-03T09:02:51.861Z,2.80
2022-12-03T09:05:30.373Z,2.80
2022-12-03T09:07:56.982Z,2.70
2022-12-03T09:10:23.727Z,2.80
2022-12-03T09:12:50.475Z,2.70
2022-12-03T09:15:17.453Z,2.70
2022-12-03T09:17:44.225Z,2.60
2022-12-03T09:20:11.359Z,2.60
2022-12-03T09:22:38.156Z,2.70
2022-12-03T09:25:05.444Z,2.70
2022-12-03T09:27:32.120Z,2.78
2022-12-03T09:29:58.966Z,2.70
2022-12-03T09:32:26.110Z,2.80
2022-12-03T09:34:54.317Z,2.84
2022-12-03T09:37:22.209Z,2.92
2022-12-03T09:39:48.929Z,3.00
2022-12-03T09:42:15.798Z,3.00
2022-12-03T09:44:42.519Z,3.00
2022-12-03T09:47:09.373Z,3.00
2022-12-03T09:49:37.911Z,3.10
2022-12-03T09:52:06.479Z,2.92
2022-12-03T09:54:34.608Z,2.90
2022-12-03T09:57:04.284Z,2.90
2022-12-03T09:59:34.361Z,2.90
2022-12-03T10:02:02.833Z,2.90
2022-12-03T10:04:30.488Z,2.90
2022-12-03T10:06:58.555Z,2.88
2022-12-03T10:09:28.926Z,2.80
2022-12-03T10:11:57.720Z,2.90
2022-12-03T10:14:24.520Z,2.90
2022-12-03T10:16:51.477Z,2.80
2022-12-03T10:19:28.654Z,2.80
2022-12-03T10:21:55.765Z,2.80
2022-12-03T10:24:28.989Z,2.80
2022-12-03T10:27:05.322Z,2.90
2022-12-03T10:29:35.699Z,3.00
2022-12-03T10:32:12.894Z,3.10
2022-12-03T10:34:42.209Z,3.10
2022-12-03T10:37:22.485Z,3.20
2022-12-03T10:40:12.458Z,3.20
2022-12-03T10:42:41.242Z,3.30
2022-12-03T10:45:22.795Z,3.30
2022-12-03T10:48:12.950Z,3.30
2022-12-03T10:50:49.628Z,3.30
2022-12-03T10:53:17.396Z,3.30
2022-12-03T10:55:46.266Z,3.30
2022-12-03T10:58:38.602Z,3.30
2022-12-03T11:01:19.230Z,3.30
2022-12-03T11:03:46.744Z,3.34
2022-12-03T11:06:20.585Z,3.38
2022-12-03T11:08:58.402Z,3.40
2022-12-03T11:11:30.437Z,3.32
2022-12-03T11:14:00.095Z,3.26
2022-12-03T11:16:39.042Z,3.20
2022-12-03T11:19:19.485Z,3.10
2022-12-03T11:22:10.068Z,3.00
2022-12-03T11:24:39.598Z,3.00
2022-12-03T11:27:10.767Z,2.98
2022-12-03T11:29:44.714Z,2.90
2022-12-03T11:32:11.447Z,2.90
2022-12-03T11:34:41.321Z,3.00
2022-12-03T11:37:11.141Z,2.90
2022-12-03T11:39:50.160Z,2.90
2022-12-03T11:42:25.282Z,2.90
2022-12-03T11:45:39.383Z,2.90
2022-12-03T11:48:15.463Z,2.90
2022-12-03T11:50:50.143Z,2.98
2022-12-03T11:53:26.253Z,3.00
2022-12-03T11:56:08.396Z,3.10
2022-12-03T11:58:43.023Z,3.20
2022-12-03T12:01:10.203Z,3.20
2022-12-03T12:03:43.765Z,3.30
2022-12-03T12:06:19.768Z,3.20
2022-12-03T12:08:52.133Z,3.10
2022-12-03T12:11:33.914Z,3.10
2022-12-03T12:14:04.330Z,3.20
2022-12-03T12:16:52.413Z,3.16
2022-12-03T12:19:43.233Z,3.10
2022-12-03T12:22:20.552Z,3.10
2022-12-03T12:24:56.359Z,3.10
2022-12-03T12:27:47.242Z,3.10
2022-12-03T12:30:17.667Z,3.10
2022-12-03T12:33:12.574Z,3.18
2022-12-03T12:35:39.186Z,3.18
2022-12-03T12:38:11.272Z,3.16
2022-12-03T12:40:41.350Z,3.10
2022-12-03T12:43:15.285Z,3.10
2022-12-03T12:45:44.015Z,3.10
2022-12-03T12:48:16.312Z,3.10
2022-12-03T12:50:46.872Z,3.10
2022-12-03T12:53:31.942Z,3.20
2022-12-03T12:56:02.431Z,3.20
2022-12-03T12:58:32.951Z,3.10
2022-12-03T13:01:06.172Z,3.00
2022-12-03T13:03:37.371Z,3.00
2022-12-03T13:06:04.489Z,3.00
2022-12-03T13:08:40.813Z,3.00
2022-12-03T13:11:42.296Z,2.90
2022-12-03T13:14:22.935Z,2.90
2022-12-03T13:16:52.290Z,2.94
2022-12-03T13:19:32.623Z,2.90
2022-12-03T13:22:16.024Z,2.90
2022-12-03T13:24:46.619Z,2.80
2022-12-03T13:27:16.183Z,2.90
2022-12-03T13:29:43.524Z,2.90
2022-12-03T13:32:21.143Z,2.92
2022-12-03T13:34:50.547Z,3.00
2022-12-03T13:37:27.007Z,3.06
2022-12-03T13:39:58.163Z,3.00
2022-12-03T13:42:39.276Z,3.00
2022-12-03T13:45:15.073Z,3.00
2022-12-03T13:47:50.644Z,3.04
2022-12-03T13:50:43.878Z,3.00
2022-12-03T13:53:22.440Z,2.94
2022-12-03T13:56:17.345Z,2.90
2022-12-03T13:58:43.912Z,2.82
2022-12-03T14:01:10.561Z,2.80
2022-12-03T14:03:37.206Z,2.76
2022-12-03T14:06:03.859Z,2.70
2022-12-03T14:08:30.526Z,2.60
2022-12-03T14:11:00.361Z,2.62
2022-12-03T14:13:28.168Z,2.70
2022-12-03T14:15:54.948Z,2.70
2022-12-03T14:18:21.581Z,2.70
2022-12-03T14:20:48.374Z,2.70
2022-12-03T14:23:15.435Z,2.70
2022-12-03T14:25:43.946Z,2.70
2022-12-03T14:28:10.915Z,2.78
2022-12-03T14:30:37.914Z,2.80
2022-12-03T14:33:04.766Z,2.88
2022-12-03T14:35:31.432Z,2.90
2022-12-03T14:37:58.015Z,2.90
2022-12-03T14:40:24.639Z,2.90
2022-12-03T14:42:51.272Z,2.90
2022-12-03T14:45:17.934Z,2.88
2022-12-03T14:47:44.545Z,2.80
2022-12-03T14:50:14.299Z,2.80
2022-12-03T14:52:41.474Z,2.90
2022-12-03T14:55:08.759Z,2.90
2022-12-03T14:57:36.957Z,2.92
2022-12-03T15:00:06.093Z,2.94
2022-12-03T15:02:33.100Z,2.90
2022-12-03T15:04:59.815Z,2.80
2022-12-03T15:07:26.453Z,2.80
2022-12-03T15:09:53.432Z,2.80
2022-12-03T15:12:20.321Z,2.72
2022-12-03T15:14:47.667Z,2.70
2022-12-03T15:17:14.490Z,2.60
2022-12-03T15:19:41.535Z,2.60
2022-12-03T15:22:08.070Z,2.70
2022-12-03T15:24:34.625Z,2.70
2022-12-03T15:27:01.249Z,2.70
2022-12-03T15:29:27.845Z,2.68
2022-12-03T15:31:54.729Z,2.60
2022-12-03T15:34:23.124Z,2.60
2022-12-03T15:36:51.244Z,2.60
2022-12-03T15:39:17.928Z,2.54
2022-12-03T15:41:44.629Z,2.50
2022-12-03T15:44:11.268Z,2.40
2022-12-03T15:46:37.856Z,2.40
2022-12-03T15:49:04.551Z,2.40
2022-12-03T15:51:31.285Z,2.40
2022-12-03T15:53:57.889Z,2.40
2022-12-03T15:56:24.872Z,2.32
2022-12-03T15:58:51.491Z,2.30
2022-12-03T16:01:18.599Z,2.30
2022-12-03T16:03:45.333Z,2.30
2022-12-03T16:06:12.774Z,2.30
2022-12-03T16:08:39.407Z,2.30
2022-12-03T16:11:06.158Z,2.30
2022-12-03T16:13:32.826Z,2.30
2022-12-03T16:15:59.588Z,2.22
2022-12-03T16:18:26.389Z,2.20
2022-12-03T16:20:53.082Z,2.20
2022-12-03T16:23:19.816Z,2.20
2022-12-03T16:25:46.584Z,2.20
2022-12-03T16:28:13.399Z,2.30
2022-12-03T16:30:39.996Z,2.30
2022-12-03T16:33:06.625Z,2.40
2022-12-03T16:35:33.350Z,2.40
2022-12-03T16:38:00.002Z,2.40
2022-12-03T16:40:26.809Z,2.30
2022-12-03T16:42:53.387Z,2.38
2022-12-03T16:45:33.438Z,2.40
2022-12-03T16:48:01.681Z,2.40
2022-12-03T16:50:30.249Z,2.40
2022-12-03T16:52:58.082Z,2.46
2022-12-03T16:55:24.911Z,2.50
2022-12-03T16:57:51.497Z,2.50
2022-12-03T17:00:18.530Z,2.50
2022-12-03T17:02:45.172Z,2.50
2022-12-03T17:05:12.054Z,2.50
2022-12-03T17:07:39.048Z,2.60
2022-12-03T17:10:06.603Z,2.54
2022-12-03T17:13:07.212Z,2.52
2022-12-03T17:15:20.402Z,2.50
2022-12-03T17:17:47.151Z,2.40
2022-12-03T17:20:14.842Z,2.36
2022-12-03T17:22:41.931Z,2.30
2022-12-03T17:25:09.872Z,2.28
2022-12-03T17:27:43.440Z,2.20
2022-12-03T17:30:13.141Z,2.20
2022-12-03T17:32:40.209Z,2.20
2022-12-03T17:35:08.975Z,2.12
2022-12-03T17:37:36.316Z,2.10
2022-12-03T17:40:06.393Z,2.10
2022-12-03T17:42:33.066Z,2.10
2022-12-03T17:44:59.661Z,2.16
2022-12-03T17:47:26.327Z,2.18
2022-12-03T17:49:53.368Z,2.18
2022-12-03T17:52:20.598Z,2.20
2022-12-03T17:55:09.916Z,2.10
2022-12-03T17:57:33.899Z,2.12
2022-12-03T18:00:00.565Z,2.20
2022-12-03T18:02:27.276Z,2.22
2022-12-03T18:04:53.845Z,2.30
2022-12-03T18:07:20.550Z,2.30
2022-12-03T18:09:47.091Z,2.20
2022-12-03T18:12:13.660Z,2.14
2022-12-03T18:14:40.211Z,2.10
2022-12-03T18:17:06.856Z,2.20
2022-12-03T18:19:33.549Z,2.20
2022-12-03T18:22:00.172Z,2.10
2022-12-03T18:24:26.922Z,2.10
2022-12-03T18:26:53.562Z,2.00
2022-12-03T18:29:20.182Z,1.92
2022-12-03T18:31:48.025Z,1.98
2022-12-03T18:34:14.735Z,2.08
2022-12-03T18:36:41.431Z,2.10
2022-12-03T18:39:27.335Z,2.18
2022-12-03T18:41:54.293Z,2.10
2022-12-03T18:44:21.311Z,2.10
2022-12-03T18:46:55.405Z,2.10
2022-12-03T18:49:22.224Z,2.10
2022-12-03T18:51:51.205Z,2.08
2022-12-03T18:54:21.014Z,2.00
2022-12-03T18:56:47.698Z,2.00
2022-12-03T18:59:14.367Z,2.00
2022-12-03T19:01:41.030Z,2.00
2022-12-03T19:04:09.778Z,2.00
2022-12-03T19:06:36.327Z,1.92
2022-12-03T19:09:02.928Z,1.90
2022-12-03T19:11:29.615Z,1.90
2022-12-03T19:13:57.411Z,1.90
2022-12-03T19:16:24.591Z,1.98
2022-12-03T19:18:53.198Z,2.00
2022-12-03T19:21:19.830Z,1.94
2022-12-03T19:24:16.042Z,1.98
2022-12-03T19:26:33.470Z,2.00
2022-12-03T19:29:00.022Z,2.08
2022-12-03T19:31:26.781Z,2.00
2022-12-03T19:33:54.389Z,2.10
2022-12-03T19:36:30.728Z,2.10
2022-12-03T19:39:00.500Z,2.18
2022-12-03T19:41:30.676Z,2.20
2022-12-03T19:43:58.853Z,2.20
2022-12-03T19:46:31.117Z,2.20
2022-12-03T19:48:57.921Z,2.20
2022-12-03T19:51:34.756Z,2.20
2022-12-03T19:54:05.311Z,2.20
2022-12-03T19:56:32.148Z,2.20
2022-12-03T19:58:58.822Z,2.20
2022-12-03T20:01:29.269Z,2.20
2022-12-03T20:03:58.985Z,2.20
2022-12-03T20:06:29.131Z,2.20
2022-12-03T20:09:06.523Z,2.20
2022-12-03T20:11:35.366Z,2.20
2022-12-03T20:14:07.226Z,2.20
2022-12-03T20:16:35.416Z,2.20
2022-12-03T20:19:06.851Z,2.20
2022-12-03T20:21:36.914Z,2.20
2022-12-03T20:24:05.309Z,2.20
2022-12-03T20:26:32.074Z,2.22
2022-12-03T20:28:59.394Z,2.20
2022-12-03T20:31:29.891Z,2.20
2022-12-03T20:34:00.384Z,2.20
2022-12-03T20:36:28.996Z,2.20
2022-12-03T20:38:58.726Z,2.20
2022-12-03T20:41:26.003Z,2.20
2022-12-03T20:43:53.840Z,2.18
2022-12-03T20:46:31.170Z,2.10
2022-12-03T20:48:59.492Z,2.10
2022-12-03T20:51:30.122Z,2.20
2022-12-03T20:53:58.481Z,2.10
2022-12-03T20:56:35.279Z,2.20
2022-12-03T20:59:05.989Z,2.22
2022-12-03T21:01:34.330Z,2.20
2022-12-03T21:04:03.202Z,2.20
2022-12-03T21:06:30.024Z,2.20
2022-12-03T21:08:59.368Z,2.20
2022-12-03T21:11:32.380Z,2.20
2022-12-03T21:14:00.391Z,2.20
2022-12-03T21:17:05.972Z,2.20
2022-12-03T21:19:20.276Z,2.30
2022-12-03T21:21:46.885Z,2.30
2022-12-03T21:24:13.863Z,2.30
2022-12-03T21:26:41.398Z,2.30
2022-12-03T21:29:08.880Z,2.30
2022-12-03T21:31:37.343Z,2.30
2022-12-03T21:34:05.158Z,2.30
2022-12-03T21:36:32.461Z,2.30
2022-12-03T21:38:59.747Z,2.30
2022-12-03T21:41:26.879Z,2.20
2022-12-03T21:43:53.882Z,2.20
2022-12-03T21:47:10.097Z,2.20
2022-12-03T21:49:07.569Z,2.30
2022-12-03T21:51:34.258Z,2.28
2022-12-03T21:54:00.984Z,2.20
2022-12-03T21:56:30.437Z,2.20
2022-12-03T21:58:57.128Z,2.20
2022-12-03T22:01:24.977Z,2.30
2022-12-03T22:03:51.824Z,2.30
2022-12-03T22:06:19.404Z,2.30
2022-12-03T22:08:46.968Z,2.20
2022-12-03T22:11:19.238Z,2.30
2022-12-03T22:13:46.710Z,2.30
2022-12-03T22:16:19.182Z,2.32
2022-12-03T22:18:46.018Z,2.30
2022-12-03T22:21:16.814Z,2.30
2022-12-03T22:23:44.393Z,2.30
2022-12-03T22:26:14.812Z,2.30
2022-12-03T22:28:46.669Z,2.40
2022-12-03T22:31:14.578Z,2.30
2022-12-03T22:33:41.846Z,2.12
2022-12-03T22:36:19.620Z,2.18
2022-12-03T22:38:49.017Z,2.20
2022-12-03T22:41:16.093Z,2.24
2022-12-03T22:43:43.170Z,2.30
2022-12-03T22:46:12.767Z,2.30
2022-12-03T22:48:42.385Z,2.30
2022-12-03T22:51:14.589Z,2.30
2022-12-03T22:53:41.218Z,2.30
2022-12-03T22:56:08.126Z,2.30
2022-12-03T22:58:34.923Z,2.30
2022-12-03T23:01:03.143Z,2.28
2022-12-03T23:03:30.938Z,2.30
2022-12-03T23:05:57.586Z,2.30
2022-12-03T23:08:24.187Z,2.34
2022-12-03T23:10:52.946Z,2.40
2022-12-03T23:13:20.737Z,2.34
2022-12-03T23:15:50.534Z,2.40
2022-12-03T23:18:19.333Z,2.40
2022-12-03T23:20:52.180Z,2.40
2022-12-03T23:23:21.640Z,2.44
2022-12-03T23:26:03.216Z,2.50
2022-12-03T23:28:32.191Z,2.50
2022-12-03T23:30:59.475Z,2.40
2022-12-03T23:33:26.360Z,2.44
2022-12-03T23:35:52.989Z,2.50
2022-12-03T23:38:19.660Z,2.50
2022-12-03T23:40:48.204Z,2.40
2022-12-03T23:43:16.310Z,2.40
2022-12-03T23:45:42.970Z,2.40
2022-12-03T23:48:09.712Z,2.40
2022-12-03T23:50:40.099Z,2.40
2022-12-03T23:53:07.071Z,2.40
2022-12-03T23:55:33.722Z,2.40
2022-12-03T23:58:00.394Z,2.40
